createdAt,value
2018-06-11T06:42:25.893Z,72.10
2018-06-11T06:44:54.108Z,72.90
2018-06-11T06:47:22.392Z,73.30
2018-06-11T06:49:50.569Z,72.00
2018-06-11T06:52:18.777Z,72.90
2018-06-11T06:54:46.961Z,73.00
2018-06-11T06:57:15.145Z,72.40
2018-06-11T06:59:43.316Z,73.30
2018-06-11T07:02:11.500Z,72.00
2018-06-11T07:04:39.696Z,70.50
2018-06-11T07:07:07.909Z,72.00
2018-06-11T07:09:36.126Z,72.10
2018-06-11T07:12:04.264Z,72.20
2018-06-11T07:14:32.445Z,72.80
2018-06-11T07:17:01.281Z,72.60
2018-06-11T07:19:29.453Z,71.40
2018-06-11T07:21:57.679Z,69.20
2018-06-11T07:24:25.851Z,68.20
2018-06-11T07:26:54.146Z,67.80
2018-06-11T07:29:22.333Z,67.50
2018-06-11T07:31:50.508Z,68.50
2018-06-11T07:34:18.793Z,68.40
2018-06-11T07:36:46.964Z,67.80
2018-06-11T07:39:15.136Z,65.50
2018-06-11T07:41:43.313Z,65.00
2018-06-11T07:44:11.492Z,64.90
2018-06-11T07:46:39.682Z,64.20
2018-06-11T07:54:03.772Z,61.40
2018-06-11T07:56:31.970Z,61.70
2018-06-11T07:59:00.153Z,59.90
2018-06-11T08:01:28.376Z,58.80
2018-06-11T08:03:56.512Z,59.00
2018-06-11T08:06:24.693Z,59.10
2018-06-11T08:08:52.878Z,59.50
2018-06-11T08:11:21.049Z,61.40
2018-06-11T08:13:49.225Z,61.10
2018-06-11T08:16:17.409Z,60.20
2018-06-11T08:18:45.587Z,58.80
2018-06-11T08:21:13.756Z,60.80
2018-06-11T08:23:41.932Z,59.90
2018-06-11T08:26:10.112Z,58.80
2018-06-11T08:28:38.295Z,59.80
2018-06-11T08:31:06.514Z,59.20
2018-06-11T08:33:34.689Z,57.80
2018-06-11T08:36:02.905Z,58.30
2018-06-11T08:38:31.074Z,57.60
2018-06-11T08:40:59.263Z,56.90
2018-06-11T08:43:27.436Z,55.00
2018-06-11T08:45:55.617Z,55.80
2018-06-11T08:48:23.795Z,55.80
2018-06-11T08:50:52.044Z,56.60
2018-06-11T08:53:21.237Z,57.80
2018-06-11T08:55:49.417Z,56.70
2018-06-11T08:58:17.604Z,55.30
2018-06-11T09:00:45.789Z,56.70
2018-06-11T09:03:13.972Z,56.20
2018-06-11T09:05:42.149Z,54.80
2018-06-11T09:08:10.333Z,55.60
2018-06-11T09:10:38.537Z,55.50
2018-06-11T09:13:06.708Z,53.80
2018-06-11T09:15:34.880Z,55.00
2018-06-11T09:18:03.115Z,54.10
2018-06-11T09:20:31.249Z,53.20
2018-06-11T09:22:59.429Z,51.40
2018-06-11T09:25:27.609Z,52.10
2018-06-11T09:27:55.804Z,52.40
2018-06-11T09:30:24.077Z,51.70
2018-06-11T09:32:53.265Z,53.00
2018-06-11T09:35:21.455Z,52.20
2018-06-11T09:37:49.637Z,51.70
2018-06-11T09:40:17.817Z,51.30
2018-06-11T09:42:46.009Z,52.60
2018-06-11T09:45:14.192Z,52.20
2018-06-11T09:47:42.376Z,51.50
2018-06-11T09:50:10.552Z,50.60
2018-06-11T09:52:38.732Z,51.00
2018-06-11T09:55:06.912Z,50.10
2018-06-11T09:57:35.097Z,47.80
2018-06-11T10:00:03.292Z,47.90
2018-06-11T10:02:31.468Z,47.80
2018-06-11T10:04:59.643Z,47.80
2018-06-11T10:07:27.833Z,46.10
2018-06-11T10:09:56.110Z,46.20
2018-06-11T10:12:24.330Z,47.50
2018-06-11T10:14:52.473Z,47.30
2018-06-11T10:17:20.652Z,48.90
2018-06-11T10:19:48.824Z,47.60
2018-06-11T10:22:17.012Z,47.20
2018-06-11T10:24:45.231Z,47.90
2018-06-11T10:27:13.437Z,47.60
2018-06-11T10:29:41.623Z,46.00
2018-06-11T10:32:09.810Z,46.10
2018-06-11T10:34:37.983Z,46.20
2018-06-11T10:37:06.245Z,44.50
2018-06-11T10:39:34.425Z,44.70
2018-06-11T10:42:02.592Z,44.40
2018-06-11T10:44:30.967Z,44.60
2018-06-11T10:46:59.128Z,46.20
2018-06-11T10:49:27.303Z,46.50
2018-06-11T10:51:55.485Z,46.00
2018-06-11T10:54:23.648Z,44.90
2018-06-11T10:56:51.824Z,44.70
2018-06-11T10:59:19.997Z,44.70
2018-06-11T11:01:48.172Z,45.30
2018-06-11T11:04:16.465Z,46.70
2018-06-11T11:06:44.642Z,46.70
2018-06-11T11:09:12.821Z,47.00
2018-06-11T11:11:42.061Z,45.00
2018-06-11T11:14:10.243Z,44.90
2018-06-11T11:16:38.428Z,45.80
2018-06-11T11:19:06.633Z,45.80
2018-06-11T11:21:34.813Z,44.80
2018-06-11T11:24:03.008Z,45.50
2018-06-11T11:26:31.177Z,44.40
2018-06-11T11:28:59.365Z,44.00
2018-06-11T11:31:27.540Z,44.40
2018-06-11T11:33:55.712Z,44.00
2018-06-11T11:36:23.890Z,44.00
2018-06-11T11:38:52.067Z,43.80
2018-06-11T11:41:20.256Z,44.20
2018-06-11T11:43:48.429Z,45.10
2018-06-11T11:46:16.621Z,45.90
2018-06-11T11:48:44.829Z,46.00
2018-06-11T11:51:13.055Z,45.90
2018-06-11T11:53:41.193Z,46.20
2018-06-11T11:56:09.389Z,47.20
2018-06-11T11:58:37.581Z,46.00
2018-06-11T12:01:05.788Z,45.70
2018-06-11T12:03:33.969Z,47.00
2018-06-11T12:06:02.145Z,46.60
2018-06-11T12:10:58.296Z,44.90
2018-06-11T12:13:26.469Z,45.70
2018-06-11T12:15:54.665Z,46.50
2018-06-11T12:18:22.943Z,44.80
2018-06-11T12:20:51.112Z,44.20
2018-06-11T12:23:19.287Z,43.80
2018-06-11T12:25:47.453Z,45.00
2018-06-11T12:28:15.627Z,45.10
2018-06-11T12:30:43.804Z,42.20
2018-06-11T12:33:11.980Z,42.70
2018-06-11T12:35:40.161Z,44.90
2018-06-11T12:38:08.344Z,45.70
2018-06-11T12:40:36.524Z,45.40
2018-06-11T12:43:04.700Z,46.10
2018-06-11T12:45:32.887Z,43.90
2018-06-11T12:48:01.060Z,45.10
2018-06-11T12:50:29.241Z,44.60
2018-06-11T12:52:57.493Z,44.30
2018-06-11T12:55:25.669Z,41.50
2018-06-11T12:57:53.845Z,42.90
2018-06-11T13:00:22.020Z,41.70
2018-06-11T13:02:50.199Z,42.70
2018-06-11T13:05:18.400Z,44.10
2018-06-11T13:07:46.571Z,44.80
2018-06-11T13:10:14.781Z,44.70
2018-06-11T13:15:10.981Z,45.70
2018-06-11T13:17:39.165Z,46.00
2018-06-11T13:20:07.336Z,46.70
2018-06-11T13:22:35.609Z,46.60
2018-06-11T13:25:03.793Z,45.60
2018-06-11T13:27:31.959Z,46.40
2018-06-11T13:30:00.152Z,47.20
2018-06-11T13:32:28.334Z,46.70
2018-06-11T13:34:56.508Z,48.30
2018-06-11T13:37:24.713Z,47.80
2018-06-11T13:39:52.885Z,47.60
2018-06-11T13:42:21.064Z,47.60
2018-06-11T13:44:49.256Z,48.30
2018-06-11T13:47:17.535Z,50.30
2018-06-11T13:49:45.723Z,50.60
2018-06-11T13:52:13.916Z,50.60
2018-06-11T13:54:42.096Z,50.60
2018-06-11T13:57:10.268Z,50.90
2018-06-11T13:59:38.450Z,50.60
2018-06-11T14:02:06.648Z,51.50
2018-06-11T14:04:34.903Z,51.20
2018-06-11T14:07:03.105Z,51.00
2018-06-11T14:09:31.281Z,50.80
2018-06-11T14:11:59.480Z,51.10
2018-06-11T14:14:27.656Z,51.60
2018-06-11T14:16:55.838Z,50.10
2018-06-11T14:19:24.030Z,49.50
2018-06-11T14:21:52.203Z,49.80
2018-06-11T14:24:20.464Z,50.00
2018-06-11T14:26:48.812Z,48.20
2018-06-11T14:29:16.998Z,47.10
2018-06-11T14:31:45.180Z,46.30
2018-06-11T14:34:13.363Z,46.60
2018-06-11T14:36:41.546Z,46.60
2018-06-11T14:39:09.724Z,45.30
2018-06-11T14:41:37.912Z,43.80
2018-06-11T14:44:06.089Z,43.50
2018-06-11T14:46:34.264Z,43.10
2018-06-11T14:49:02.447Z,43.30
2018-06-11T14:51:30.625Z,43.80
2018-06-11T14:53:58.800Z,44.20
2018-06-11T14:56:27.009Z,44.40
2018-06-11T14:58:55.192Z,45.10
2018-06-11T15:01:23.404Z,45.60
2018-06-11T15:03:51.596Z,46.20
2018-06-11T15:06:19.774Z,46.20
2018-06-11T15:08:47.944Z,47.30
2018-06-11T15:11:16.149Z,47.30
2018-06-11T15:13:44.320Z,48.20
2018-06-11T15:16:12.496Z,48.60
2018-06-11T15:18:40.680Z,49.20
2018-06-11T15:21:08.858Z,49.20
2018-06-11T15:23:37.097Z,49.70
2018-06-11T15:26:05.225Z,50.30
2018-06-11T15:28:33.413Z,50.90
2018-06-11T15:31:01.602Z,51.30
2018-06-11T15:33:29.787Z,51.90
2018-06-11T15:35:57.968Z,52.90
2018-06-11T15:38:26.153Z,53.60
2018-06-11T15:40:54.344Z,55.00
2018-06-11T15:43:22.516Z,55.20
2018-06-11T15:45:50.697Z,56.50
2018-06-11T15:48:18.882Z,57.60
2018-06-11T15:50:47.061Z,57.50
2018-06-11T15:53:15.272Z,57.20
2018-06-11T15:55:43.456Z,57.30
2018-06-11T15:58:11.632Z,57.30
2018-06-11T16:00:39.924Z,57.20
2018-06-11T16:03:08.078Z,56.90
2018-06-11T16:05:36.254Z,57.10
2018-06-11T16:08:04.432Z,57.00
2018-06-11T16:10:32.710Z,56.70
2018-06-11T16:13:00.876Z,57.20
2018-06-11T16:15:29.059Z,59.20
2018-06-11T16:17:57.241Z,59.70
2018-06-11T16:20:25.513Z,60.70
2018-06-11T16:22:53.684Z,61.50
2018-06-11T16:25:21.853Z,62.10
2018-06-11T16:27:50.025Z,63.00
2018-06-11T16:30:18.210Z,63.70
2018-06-11T16:32:46.399Z,63.90
2018-06-11T16:35:14.568Z,64.70
2018-06-11T16:37:42.744Z,65.70
2018-06-11T16:40:10.933Z,66.60
2018-06-11T16:42:39.189Z,68.40
2018-06-11T16:45:07.365Z,70.70
2018-06-11T16:47:35.544Z,72.40
2018-06-11T16:50:03.745Z,72.60
2018-06-11T16:52:31.925Z,73.50
2018-06-11T16:55:00.092Z,74.10
2018-06-11T16:57:28.274Z,74.80
2018-06-11T16:59:56.449Z,76.40
2018-06-11T17:02:24.624Z,78.40
2018-06-11T17:04:52.796Z,78.90
2018-06-11T17:07:21.618Z,79.70
2018-06-11T17:12:18.498Z,82.70
2018-06-11T17:14:46.731Z,83.20
2018-06-11T17:17:14.849Z,83.70
2018-06-11T17:19:43.028Z,83.60
2018-06-11T17:22:11.214Z,83.30
2018-06-11T17:24:39.400Z,83.60
2018-06-11T17:27:07.580Z,83.70
2018-06-11T17:29:35.769Z,82.80
2018-06-11T17:32:03.944Z,81.40
2018-06-11T17:34:32.188Z,80.80
2018-06-11T17:37:00.330Z,80.50
2018-06-11T17:39:28.508Z,80.80
2018-06-11T17:44:24.689Z,82.30
2018-06-11T17:46:52.954Z,82.70
2018-06-11T17:49:21.133Z,83.50
2018-06-11T17:51:49.316Z,83.60
2018-06-11T17:54:17.518Z,84.50
2018-06-11T17:56:45.672Z,84.80
2018-06-11T17:59:13.845Z,85.20
2018-06-11T18:01:42.022Z,85.80
2018-06-11T18:04:10.258Z,86.30
2018-06-11T18:06:38.389Z,87.20
2018-06-11T18:09:08.333Z,88.00
2018-06-11T18:11:36.897Z,89.20
2018-06-11T18:14:05.108Z,88.60
2018-06-11T18:16:33.286Z,88.70
2018-06-11T18:21:29.401Z,90.00
2018-06-11T18:23:57.585Z,89.20
2018-06-11T18:26:25.817Z,88.60
2018-06-11T18:28:53.949Z,88.70
2018-06-11T18:31:22.128Z,88.10
2018-06-11T18:36:18.269Z,87.20
2018-06-11T18:38:46.457Z,87.30
2018-06-11T18:41:14.674Z,87.70
2018-06-11T18:43:42.848Z,88.10
2018-06-11T18:46:11.024Z,88.30
2018-06-11T18:48:39.229Z,88.20
2018-06-11T18:51:07.404Z,88.80
2018-06-11T18:53:35.584Z,89.20
2018-06-11T18:56:03.853Z,89.60
2018-06-11T18:58:32.033Z,90.00
2018-06-11T19:01:00.241Z,90.20
2018-06-11T19:03:28.431Z,90.30
2018-06-11T19:05:56.596Z,90.50
2018-06-11T19:08:24.768Z,90.80
2018-06-11T19:10:52.969Z,91.00
2018-06-11T19:13:21.140Z,91.10
2018-06-11T19:15:49.325Z,91.30
2018-06-11T19:18:17.501Z,91.40
2018-06-11T19:20:45.679Z,91.70
2018-06-11T19:23:13.876Z,91.90
2018-06-11T19:25:42.066Z,92.10
2018-06-11T19:28:10.226Z,92.10
2018-06-11T19:30:38.410Z,92.50
2018-06-11T19:33:06.660Z,92.60
2018-06-11T19:35:34.801Z,92.70
2018-06-11T19:38:02.969Z,92.70
2018-06-11T19:40:31.148Z,93.00
2018-06-11T19:42:59.316Z,93.20
2018-06-11T19:45:27.505Z,93.30
2018-06-11T19:47:55.677Z,93.40
2018-06-11T19:50:23.861Z,93.50
2018-06-11T19:52:52.040Z,93.70
2018-06-11T19:55:20.216Z,93.80
2018-06-11T19:57:48.399Z,94.10
2018-06-11T20:00:16.572Z,94.30
2018-06-11T20:02:44.792Z,94.40
2018-06-11T20:05:12.949Z,94.70
2018-06-11T20:07:41.149Z,94.90
2018-06-11T20:10:09.331Z,95.10
2018-06-11T20:12:37.516Z,95.20
2018-06-11T20:15:05.694Z,95.60
2018-06-11T20:17:33.886Z,95.70
2018-06-11T20:20:02.068Z,95.90
2018-06-11T20:22:30.244Z,96.00
2018-06-11T20:24:58.429Z,96.20
2018-06-11T20:27:26.615Z,96.40
2018-06-11T20:29:54.798Z,96.50
2018-06-11T20:32:23.030Z,96.50
2018-06-11T20:34:51.166Z,96.70
2018-06-11T20:37:19.356Z,96.80
2018-06-11T20:39:47.524Z,97.00
2018-06-11T20:44:43.717Z,97.30
2018-06-11T20:47:11.889Z,97.40
2018-06-11T20:49:40.064Z,97.60
2018-06-11T20:52:08.232Z,97.60
2018-06-11T20:54:36.404Z,97.60
2018-06-11T20:57:04.724Z,97.70
2018-06-11T20:59:32.904Z,97.70
2018-06-11T21:02:01.100Z,97.60
2018-06-11T21:06:57.205Z,97.40
2018-06-11T21:09:25.392Z,97.50
2018-06-11T21:11:53.580Z,97.70
2018-06-11T21:14:21.756Z,98.10
2018-06-11T21:16:49.956Z,98.10
2018-06-11T21:21:46.109Z,98.20
2018-06-11T21:24:14.326Z,98.50
2018-06-11T21:26:42.453Z,98.70
2018-06-11T21:29:10.628Z,98.70
2018-06-11T21:31:38.801Z,98.80
2018-06-11T21:36:34.960Z,98.80
2018-06-11T21:39:03.204Z,98.90
2018-06-11T21:41:31.368Z,99.10
2018-06-11T21:43:59.543Z,99.10
2018-06-11T21:46:27.720Z,99.00
2018-06-11T21:48:55.896Z,99.00
2018-06-11T21:51:24.080Z,98.70
2018-06-11T21:53:52.253Z,98.50
2018-06-11T21:56:20.416Z,98.50
2018-06-11T21:58:48.641Z,98.30
2018-06-11T22:01:16.806Z,98.40
2018-06-11T22:03:45.031Z,98.40
2018-06-11T22:06:13.157Z,98.00
2018-06-11T22:08:41.328Z,97.80
2018-06-11T22:11:09.526Z,97.90
2018-06-11T22:13:37.696Z,98.10
2018-06-11T22:16:05.868Z,98.00
2018-06-11T22:18:34.043Z,98.00
2018-06-11T22:21:02.309Z,98.00
2018-06-11T22:23:30.482Z,98.30
2018-06-11T22:25:58.665Z,98.70
2018-06-11T22:28:26.844Z,98.60
2018-06-11T22:30:55.020Z,98.70
2018-06-11T22:33:23.237Z,98.90
2018-06-11T22:35:51.420Z,98.90
2018-06-11T22:38:19.602Z,98.90
2018-06-11T22:40:47.773Z,98.70
2018-06-11T22:43:15.944Z,98.50
2018-06-11T22:45:44.120Z,98.20
2018-06-11T22:48:12.296Z,98.20
2018-06-11T22:50:40.460Z,98.10
2018-06-11T22:53:08.641Z,98.10
2018-06-11T22:55:36.820Z,98.30
2018-06-11T22:58:04.998Z,98.20
2018-06-11T23:00:34.416Z,98.30
2018-06-11T23:05:30.538Z,98.70
2018-06-11T23:07:58.745Z,98.50
2018-06-11T23:10:26.924Z,98.70
2018-06-11T23:12:55.103Z,98.70
2018-06-11T23:15:23.285Z,98.90
2018-06-11T23:17:51.456Z,99.00
2018-06-11T23:20:19.629Z,99.00
2018-06-11T23:22:47.801Z,99.00
2018-06-11T23:25:15.997Z,99.00
2018-06-11T23:27:44.165Z,99.00
2018-06-11T23:30:12.342Z,99.00
2018-06-11T23:32:40.520Z,99.10
2018-06-11T23:35:08.792Z,99.10
2018-06-11T23:37:36.952Z,99.10
2018-06-11T23:40:05.189Z,99.10
2018-06-11T23:42:33.388Z,99.10
2018-06-11T23:45:01.564Z,99.00
2018-06-11T23:47:29.737Z,98.80
2018-06-11T23:49:57.908Z,99.00
2018-06-11T23:52:26.088Z,99.00
2018-06-11T23:54:54.262Z,99.10
2018-06-11T23:57:22.435Z,99.30
2018-06-11T23:59:50.604Z,99.60
